createdAt,value
2023-04-30T00:01:00.360Z,15.25
2023-04-30T00:03:27.429Z,15.13
2023-04-30T00:05:54.503Z,15.88
2023-04-30T00:08:21.475Z,17.77
2023-04-30T00:10:48.701Z,16.13
2023-04-30T00:13:15.568Z,18.48
2023-04-30T00:15:42.719Z,18.27
2023-04-30T00:18:09.673Z,17.35
2023-04-30T00:20:36.585Z,17.90
2023-04-30T00:23:03.691Z,17.65
2023-04-30T00:25:30.628Z,17.50
2023-04-30T00:27:57.584Z,17.50
2023-04-30T00:30:24.455Z,17.45
2023-04-30T00:32:51.412Z,16.90
2023-04-30T00:35:18.553Z,17.23
2023-04-30T00:37:45.922Z,17.27
2023-04-30T00:40:13.379Z,19.27
2023-04-30T00:42:40.635Z,18.95
2023-04-30T00:45:08.585Z,20.25
2023-04-30T00:47:35.878Z,18.38
2023-04-30T00:50:02.889Z,18.35
2023-04-30T00:52:29.906Z,17.63
2023-04-30T00:54:57.679Z,19.17
2023-04-30T00:57:25.578Z,22.00
2023-04-30T00:59:53.016Z,17.45
2023-04-30T01:02:20.476Z,20.63
2023-04-30T01:04:47.636Z,20.50
2023-04-30T01:07:14.573Z,21.42
2023-04-30T01:09:41.600Z,18.73
2023-04-30T01:12:20.517Z,19.13
2023-04-30T01:14:59.302Z,22.85
2023-04-30T01:18:08.096Z,20.83
2023-04-30T01:20:39.621Z,21.73
2023-04-30T01:23:36.749Z,18.77
2023-04-30T01:26:59.534Z,19.80
2023-04-30T01:29:28.099Z,19.75
2023-04-30T01:31:54.955Z,22.58
2023-04-30T01:34:24.935Z,22.05
2023-04-30T01:37:29.439Z,20.70
2023-04-30T01:40:11.481Z,17.40
2023-04-30T01:43:12.779Z,21.65
2023-04-30T01:46:16.680Z,21.70
2023-04-30T01:48:56.457Z,20.77
2023-04-30T01:51:38.574Z,20.92
2023-04-30T01:55:00.493Z,20.27
2023-04-30T01:57:42.349Z,25.25
2023-04-30T02:00:13.702Z,22.77
2023-04-30T02:02:41.110Z,21.58
2023-04-30T02:05:08.549Z,23.02
2023-04-30T02:07:44.266Z,22.67
2023-04-30T02:10:14.986Z,23.20
2023-04-30T02:12:41.884Z,26.13
2023-04-30T02:15:09.890Z,24.38
2023-04-30T02:17:37.213Z,24.30
2023-04-30T02:20:04.932Z,24.85
2023-04-30T02:22:31.870Z,25.50
2023-04-30T02:24:59.844Z,25.98
2023-04-30T02:27:27.607Z,25.08
2023-04-30T02:29:54.832Z,28.80
2023-04-30T02:32:22.691Z,27.52
2023-04-30T02:34:50.027Z,27.30
2023-04-30T02:37:17.144Z,27.15
2023-04-30T02:39:44.100Z,26.52
2023-04-30T02:42:11.467Z,28.25
2023-04-30T02:44:38.335Z,29.27
2023-04-30T02:47:05.725Z,28.55
2023-04-30T02:49:32.615Z,30.45
2023-04-30T02:51:59.782Z,26.38
2023-04-30T02:54:26.669Z,30.33
2023-04-30T02:56:53.812Z,29.77
2023-04-30T02:59:21.101Z,30.48
2023-04-30T03:01:48.151Z,32.83
2023-04-30T03:04:15.054Z,32.45
2023-04-30T03:06:41.983Z,34.42
2023-04-30T03:09:09.043Z,33.22
2023-04-30T03:11:37.894Z,35.25
2023-04-30T03:14:08.111Z,36.17
2023-04-30T03:16:35.123Z,36.80
2023-04-30T03:19:02.024Z,37.28
2023-04-30T03:21:29.320Z,36.67
2023-04-30T03:23:56.296Z,37.67
2023-04-30T03:26:23.201Z,33.83
2023-04-30T03:28:50.395Z,35.67
2023-04-30T03:31:17.310Z,40.10
2023-04-30T03:33:44.363Z,39.13
2023-04-30T03:36:11.250Z,36.60
2023-04-30T03:38:38.178Z,39.28
2023-04-30T03:41:05.803Z,37.50
2023-04-30T03:43:32.727Z,34.80
2023-04-30T03:45:59.744Z,34.35
2023-04-30T03:48:27.476Z,36.47
2023-04-30T03:50:54.502Z,37.90
2023-04-30T03:53:21.757Z,34.95
2023-04-30T03:55:50.242Z,37.85
2023-04-30T03:58:17.592Z,35.25
2023-04-30T04:00:46.067Z,33.88
2023-04-30T04:03:13.205Z,35.72
2023-04-30T04:05:40.101Z,34.55
2023-04-30T04:08:08.121Z,32.50
2023-04-30T04:10:35.692Z,31.67
2023-04-30T04:13:02.616Z,30.05
2023-04-30T04:15:29.814Z,29.95
2023-04-30T04:17:56.868Z,29.23
2023-04-30T04:20:23.851Z,29.73
2023-04-30T04:22:51.243Z,30.90
2023-04-30T04:25:18.421Z,30.98
2023-04-30T04:27:45.769Z,27.45
2023-04-30T04:30:13.896Z,27.48
2023-04-30T04:32:46.899Z,28.38
2023-04-30T04:35:19.188Z,28.45
2023-04-30T04:37:46.532Z,27.63
2023-04-30T04:40:13.833Z,27.52
2023-04-30T04:42:40.897Z,27.92
2023-04-30T04:45:08.876Z,25.20
2023-04-30T04:47:36.951Z,23.65
2023-04-30T04:50:04.183Z,22.33
2023-04-30T04:52:31.179Z,22.42
2023-04-30T04:54:58.404Z,21.30
2023-04-30T04:57:25.982Z,19.27
2023-04-30T04:59:53.547Z,19.45
2023-04-30T05:02:21.481Z,18.48
2023-04-30T05:04:50.676Z,18.23
2023-04-30T05:07:18.483Z,19.17
2023-04-30T05:09:49.558Z,18.42
2023-04-30T05:12:16.651Z,16.38
2023-04-30T05:14:44.209Z,17.10
2023-04-30T05:17:11.311Z,16.55
2023-04-30T05:19:38.192Z,16.42
2023-04-30T05:22:05.975Z,16.63
2023-04-30T05:24:33.113Z,15.20
2023-04-30T05:27:00.112Z,15.90
2023-04-30T05:29:26.989Z,15.50
2023-04-30T05:31:54.813Z,15.55
2023-04-30T05:34:21.810Z,15.85
2023-04-30T05:36:48.881Z,15.73
2023-04-30T05:39:15.932Z,14.20
2023-04-30T05:41:42.977Z,15.00
2023-04-30T05:44:09.857Z,13.93
2023-04-30T05:46:37.238Z,14.23
2023-04-30T05:49:04.180Z,14.98
2023-04-30T05:51:31.197Z,13.93
2023-04-30T05:53:58.129Z,14.23
2023-04-30T05:56:25.570Z,13.95
2023-04-30T05:58:53.110Z,14.23
2023-04-30T06:01:21.356Z,15.00
2023-04-30T06:03:48.289Z,14.35
2023-04-30T06:06:15.289Z,13.65
2023-04-30T06:08:45.159Z,14.45
2023-04-30T06:11:13.630Z,15.68
2023-04-30T06:13:41.273Z,14.00
2023-04-30T06:16:08.867Z,14.65
2023-04-30T06:18:36.414Z,15.05
2023-04-30T06:21:03.482Z,14.57
2023-04-30T06:23:30.445Z,15.32
2023-04-30T06:25:57.709Z,15.32
2023-04-30T06:28:24.770Z,15.20
2023-04-30T06:30:52.300Z,14.93
2023-04-30T06:33:19.223Z,15.10
2023-04-30T06:35:46.136Z,16.58
2023-04-30T06:38:13.928Z,16.67
2023-04-30T06:40:41.011Z,16.42
2023-04-30T06:43:08.016Z,16.27
2023-04-30T06:45:35.646Z,16.77
2023-04-30T06:48:02.640Z,15.82
2023-04-30T06:50:29.620Z,16.48
2023-04-30T06:52:56.572Z,15.98
2023-04-30T06:55:23.899Z,17.52
2023-04-30T06:57:54.721Z,17.42
2023-04-30T07:00:21.691Z,16.83
2023-04-30T07:02:52.272Z,17.30
2023-04-30T07:05:19.431Z,18.20
2023-04-30T07:07:46.845Z,19.58
2023-04-30T07:10:13.753Z,18.25
2023-04-30T07:12:40.621Z,18.20
2023-04-30T07:15:08.336Z,18.38
2023-04-30T07:17:35.562Z,18.67
2023-04-30T07:20:02.641Z,19.15
2023-04-30T07:22:29.683Z,18.30
2023-04-30T07:24:56.749Z,17.95
2023-04-30T07:27:24.093Z,17.00
2023-04-30T07:29:52.062Z,17.58
2023-04-30T07:32:18.986Z,17.33
2023-04-30T07:34:45.979Z,17.35
2023-04-30T07:37:13.696Z,16.67
2023-04-30T07:39:41.024Z,16.55
2023-04-30T07:42:07.891Z,16.35
2023-04-30T07:44:34.760Z,15.93
2023-04-30T07:47:01.817Z,16.15
2023-04-30T07:49:29.132Z,15.30
2023-04-30T07:51:56.670Z,15.50
2023-04-30T07:54:23.849Z,15.27
2023-04-30T07:56:50.729Z,16.08
2023-04-30T07:59:17.948Z,16.65
2023-04-30T08:01:45.463Z,16.35
2023-04-30T08:04:12.709Z,16.60
2023-04-30T08:06:39.711Z,16.42
2023-04-30T08:09:06.659Z,16.77
2023-04-30T08:11:33.751Z,15.80
2023-04-30T08:14:00.788Z,15.85
2023-04-30T08:16:27.966Z,17.13
2023-04-30T08:18:54.896Z,18.58
2023-04-30T08:21:21.973Z,18.50
2023-04-30T08:23:49.312Z,18.33
2023-04-30T08:26:16.187Z,17.35
2023-04-30T08:28:43.169Z,18.75
2023-04-30T08:31:10.514Z,20.58
2023-04-30T08:33:37.393Z,19.48
2023-04-30T08:36:04.673Z,20.20
2023-04-30T08:38:31.573Z,21.35
2023-04-30T08:41:11.545Z,23.25
2023-04-30T08:43:38.992Z,21.23
2023-04-30T08:46:06.896Z,21.63
2023-04-30T08:48:34.589Z,21.33
2023-04-30T08:51:04.941Z,22.75
2023-04-30T08:53:35.330Z,21.05
2023-04-30T08:56:03.790Z,20.92
2023-04-30T08:58:31.034Z,21.83
2023-04-30T09:01:00.230Z,19.98
2023-04-30T09:03:28.643Z,21.33
2023-04-30T09:05:56.494Z,20.15
2023-04-30T09:08:47.457Z,18.98
2023-04-30T09:11:30.834Z,18.10
2023-04-30T09:14:00.858Z,19.17
2023-04-30T09:16:46.562Z,19.73
2023-04-30T09:19:30.901Z,19.80
2023-04-30T09:21:58.592Z,19.77
2023-04-30T09:24:25.880Z,18.80
2023-04-30T09:26:54.601Z,22.23
2023-04-30T09:29:21.559Z,21.33
2023-04-30T09:31:48.722Z,21.40
2023-04-30T09:34:16.268Z,25.00
2023-04-30T09:36:57.072Z,24.20
2023-04-30T09:39:24.367Z,24.23
2023-04-30T09:41:52.334Z,24.13
2023-04-30T09:44:40.632Z,21.45
2023-04-30T09:47:16.204Z,23.90
2023-04-30T09:49:46.773Z,25.45
2023-04-30T09:52:16.399Z,23.27
2023-04-30T09:54:45.986Z,20.58
2023-04-30T09:57:15.849Z,19.88
2023-04-30T09:59:47.424Z,17.95
2023-04-30T10:02:17.161Z,18.92
2023-04-30T10:04:45.806Z,16.75
2023-04-30T10:07:25.220Z,17.15
2023-04-30T10:10:00.624Z,16.48
2023-04-30T10:12:48.660Z,16.38
2023-04-30T10:15:21.016Z,15.80
2023-04-30T10:17:58.436Z,16.83
2023-04-30T10:20:27.087Z,16.67
2023-04-30T10:22:54.725Z,16.20
2023-04-30T10:25:23.794Z,16.58
2023-04-30T10:27:52.065Z,15.55
2023-04-30T10:30:19.138Z,14.70
2023-04-30T10:33:16.781Z,15.30
2023-04-30T10:36:04.525Z,14.02
2023-04-30T10:38:32.996Z,15.15
2023-04-30T10:41:04.090Z,15.13
2023-04-30T10:43:31.764Z,14.70
2023-04-30T10:45:59.271Z,16.35
2023-04-30T10:48:27.559Z,16.08
2023-04-30T10:51:01.339Z,16.35
2023-04-30T10:53:32.226Z,15.38
2023-04-30T10:56:09.670Z,15.35
2023-04-30T10:58:41.656Z,16.23
2023-04-30T11:01:15.832Z,15.32
2023-04-30T11:04:07.296Z,15.20
2023-04-30T11:06:52.828Z,15.73
2023-04-30T11:09:21.841Z,16.25
2023-04-30T11:12:04.002Z,16.25
2023-04-30T11:14:34.404Z,15.73
2023-04-30T11:17:02.670Z,16.30
2023-04-30T11:19:34.860Z,14.45
2023-04-30T11:22:04.525Z,15.10
2023-04-30T11:24:59.519Z,15.15
2023-04-30T11:27:32.459Z,15.15
2023-04-30T11:30:00.931Z,16.30
2023-04-30T11:32:37.588Z,16.23
2023-04-30T11:35:06.940Z,15.60
2023-04-30T11:37:38.046Z,15.23
2023-04-30T11:40:11.334Z,16.27
2023-04-30T11:42:40.191Z,16.75
2023-04-30T11:45:13.198Z,17.33
2023-04-30T11:47:49.426Z,17.73
2023-04-30T11:50:19.803Z,18.92
2023-04-30T11:52:53.033Z,19.17
2023-04-30T11:55:22.577Z,20.52
2023-04-30T11:57:53.290Z,18.08
2023-04-30T12:00:27.335Z,20.35
2023-04-30T12:02:55.605Z,20.67
2023-04-30T12:05:28.385Z,20.42
2023-04-30T12:08:06.884Z,20.10
2023-04-30T12:10:34.172Z,21.23
2023-04-30T12:13:01.463Z,21.60
2023-04-30T12:15:29.309Z,20.77
2023-04-30T12:18:00.751Z,22.48
2023-04-30T12:20:31.479Z,20.90
2023-04-30T12:22:58.927Z,20.02
2023-04-30T12:25:29.617Z,19.58
2023-04-30T12:27:59.965Z,21.70
2023-04-30T12:30:27.829Z,22.23
2023-04-30T12:32:58.851Z,21.25
2023-04-30T12:35:29.970Z,22.08
2023-04-30T12:38:08.433Z,21.17
2023-04-30T12:40:35.931Z,22.40
2023-04-30T12:43:08.769Z,21.98
2023-04-30T12:45:48.725Z,20.98
2023-04-30T12:48:16.519Z,20.98
2023-04-30T12:51:01.020Z,20.55
2023-04-30T12:53:28.999Z,21.05
2023-04-30T12:56:15.495Z,23.33
2023-04-30T12:58:50.303Z,22.33
2023-04-30T13:01:23.333Z,22.15
2023-04-30T13:03:51.679Z,21.88
2023-04-30T13:06:18.832Z,21.20
2023-04-30T13:08:58.060Z,23.85
2023-04-30T13:11:27.349Z,19.85
2023-04-30T13:13:57.609Z,23.33
2023-04-30T13:16:25.691Z,22.73
2023-04-30T13:18:53.619Z,21.17
2023-04-30T13:21:21.664Z,21.08
2023-04-30T13:23:52.654Z,19.88
2023-04-30T13:26:20.792Z,21.92
2023-04-30T13:28:47.659Z,20.35
2023-04-30T13:31:14.653Z,19.98
2023-04-30T13:33:41.855Z,19.63
2023-04-30T13:36:08.817Z,18.25
2023-04-30T13:38:35.691Z,17.10
2023-04-30T13:41:02.731Z,12.90
2023-04-30T13:43:29.608Z,12.48
2023-04-30T13:45:56.677Z,12.88
2023-04-30T13:48:23.843Z,12.43
2023-04-30T13:50:52.682Z,14.93
2023-04-30T13:53:20.029Z,15.05
2023-04-30T13:55:46.993Z,16.67
2023-04-30T13:58:14.209Z,16.23
2023-04-30T14:00:41.423Z,18.27
2023-04-30T14:03:08.683Z,16.73
2023-04-30T14:05:36.936Z,18.08
2023-04-30T14:08:05.025Z,16.58
2023-04-30T14:10:33.144Z,16.25
2023-04-30T14:13:00.256Z,16.33
2023-04-30T14:15:30.875Z,18.00
2023-04-30T14:17:58.147Z,17.13
2023-04-30T14:20:25.974Z,17.45
2023-04-30T14:22:53.257Z,16.10
2023-04-30T14:25:20.779Z,16.83
2023-04-30T14:27:47.844Z,17.73
2023-04-30T14:30:17.916Z,16.48
2023-04-30T14:32:44.889Z,17.30
2023-04-30T14:35:11.820Z,18.17
2023-04-30T14:37:38.743Z,18.77
2023-04-30T14:40:08.485Z,20.10
2023-04-30T14:42:35.448Z,20.20
2023-04-30T14:45:02.501Z,20.38
2023-04-30T14:47:29.638Z,20.70
2023-04-30T14:49:59.276Z,20.67
2023-04-30T14:52:26.244Z,20.83
2023-04-30T14:54:53.265Z,17.67
2023-04-30T14:57:20.631Z,18.40
2023-04-30T14:59:47.849Z,18.77
2023-04-30T15:02:15.270Z,17.55
2023-04-30T15:04:46.288Z,18.10
2023-04-30T15:07:13.496Z,19.13
2023-04-30T15:09:40.565Z,16.55
2023-04-30T15:12:07.472Z,15.65
2023-04-30T15:14:34.302Z,15.55
2023-04-30T15:17:01.386Z,13.88
2023-04-30T15:19:28.614Z,13.55
2023-04-30T15:21:55.482Z,12.88
2023-04-30T15:24:22.592Z,11.77
2023-04-30T15:26:51.377Z,11.15
2023-04-30T15:29:18.347Z,9.05
2023-04-30T15:31:45.322Z,9.13
2023-04-30T15:34:12.263Z,8.55
2023-04-30T15:36:39.439Z,8.70
2023-04-30T15:39:06.319Z,7.82
2023-04-30T15:41:33.188Z,9.35
2023-04-30T15:44:00.651Z,8.07
2023-04-30T15:46:27.662Z,8.25
2023-04-30T15:48:54.669Z,8.18
2023-04-30T15:51:21.585Z,7.88
2023-04-30T15:53:48.800Z,7.80
2023-04-30T15:56:18.705Z,8.13
2023-04-30T15:58:45.619Z,8.55
2023-04-30T16:01:13.073Z,9.65
2023-04-30T16:03:40.211Z,9.85
2023-04-30T16:06:07.580Z,9.48
2023-04-30T16:08:34.733Z,9.10
2023-04-30T16:11:01.986Z,8.75
2023-04-30T16:13:29.129Z,8.13
2023-04-30T16:15:56.312Z,10.23
2023-04-30T16:18:23.468Z,9.55
2023-04-30T16:20:50.470Z,9.65
2023-04-30T16:23:17.557Z,9.40
2023-04-30T16:25:45.758Z,10.10
2023-04-30T16:28:12.626Z,9.55
2023-04-30T16:30:39.723Z,9.82
2023-04-30T16:33:07.287Z,9.70
2023-04-30T16:35:34.419Z,10.00
2023-04-30T16:38:02.803Z,9.57
2023-04-30T16:40:29.706Z,9.30
2023-04-30T16:42:56.925Z,9.45
2023-04-30T16:45:23.836Z,9.60
2023-04-30T16:47:51.133Z,9.90
2023-04-30T16:50:19.298Z,9.48
2023-04-30T16:52:46.243Z,10.48
2023-04-30T16:55:14.096Z,9.75
2023-04-30T16:57:41.113Z,9.13
2023-04-30T17:00:12.025Z,9.80
2023-04-30T17:02:41.012Z,8.93
2023-04-30T17:05:11.606Z,9.13
2023-04-30T17:07:38.784Z,8.68
2023-04-30T17:10:06.758Z,8.55
2023-04-30T17:12:33.690Z,9.30
2023-04-30T17:15:00.652Z,9.43
2023-04-30T17:17:27.519Z,9.68
2023-04-30T17:19:54.664Z,8.60
2023-04-30T17:22:21.744Z,9.23
2023-04-30T17:24:49.179Z,9.07
2023-04-30T17:27:16.344Z,9.98
2023-04-30T17:29:43.461Z,9.30
2023-04-30T17:32:11.416Z,10.50
2023-04-30T17:34:38.622Z,9.57
2023-04-30T17:37:06.018Z,9.93
2023-04-30T17:39:32.921Z,9.48
2023-04-30T17:42:00.066Z,9.02
2023-04-30T17:44:27.084Z,9.63
2023-04-30T17:46:54.202Z,8.98
2023-04-30T17:49:21.253Z,9.27
2023-04-30T17:51:48.642Z,9.20
2023-04-30T17:54:15.714Z,9.88
2023-04-30T17:56:42.836Z,9.32
2023-04-30T17:59:09.789Z,8.95
2023-04-30T18:01:38.366Z,9.77
2023-04-30T18:04:08.902Z,8.60
2023-04-30T18:06:36.753Z,10.07
2023-04-30T18:09:04.872Z,10.25
2023-04-30T18:11:32.001Z,9.10
2023-04-30T18:13:58.928Z,10.77
2023-04-30T18:16:25.928Z,11.68
2023-04-30T18:18:52.817Z,13.05
2023-04-30T18:21:19.785Z,13.13
2023-04-30T18:23:47.607Z,14.18
2023-04-30T18:26:14.494Z,15.13
2023-04-30T18:28:42.718Z,16.13
2023-04-30T18:31:09.673Z,15.23
2023-04-30T18:33:36.903Z,14.60
2023-04-30T18:36:06.117Z,13.07
2023-04-30T18:38:34.029Z,15.45
2023-04-30T18:41:02.014Z,14.93
2023-04-30T18:43:28.972Z,14.90
2023-04-30T18:45:56.073Z,15.25
2023-04-30T18:48:23.292Z,15.52
2023-04-30T18:50:50.934Z,14.25
2023-04-30T18:53:18.932Z,14.18
2023-04-30T18:55:46.378Z,15.65
2023-04-30T18:58:13.598Z,14.73
2023-04-30T19:00:43.497Z,13.10
2023-04-30T19:03:10.785Z,14.63
2023-04-30T19:05:38.277Z,13.77
2023-04-30T19:08:05.174Z,14.52
2023-04-30T19:10:34.925Z,15.38
2023-04-30T19:13:02.350Z,15.77
2023-04-30T19:15:30.253Z,15.10
2023-04-30T19:17:58.051Z,15.40
2023-04-30T19:20:25.087Z,16.95
2023-04-30T19:22:52.002Z,17.73
2023-04-30T19:25:18.960Z,15.85
2023-04-30T19:27:47.313Z,18.30
2023-04-30T19:30:14.771Z,15.98
2023-04-30T19:32:42.285Z,17.20
2023-04-30T19:35:09.540Z,18.92
2023-04-30T19:37:36.965Z,17.98
2023-04-30T19:40:10.725Z,19.27
2023-04-30T19:42:39.317Z,17.30
2023-04-30T19:45:09.045Z,18.00
2023-04-30T19:47:36.935Z,16.60
2023-04-30T19:50:04.078Z,19.27
2023-04-30T19:52:30.985Z,18.70
2023-04-30T19:54:58.769Z,21.70
2023-04-30T19:57:26.350Z,18.52
2023-04-30T19:59:53.402Z,18.75
2023-04-30T20:02:20.510Z,20.65
2023-04-30T20:04:47.496Z,19.42
2023-04-30T20:07:14.543Z,23.38
2023-04-30T20:09:41.730Z,25.45
2023-04-30T20:12:08.729Z,22.23
2023-04-30T20:14:36.069Z,21.95
2023-04-30T20:17:03.116Z,21.63
2023-04-30T20:19:30.420Z,20.45
2023-04-30T20:21:57.465Z,21.33
2023-04-30T20:24:24.900Z,22.20
2023-04-30T20:26:51.780Z,22.23
2023-04-30T20:29:20.888Z,22.98
2023-04-30T20:31:48.073Z,24.92
2023-04-30T20:34:14.996Z,23.13
2023-04-30T20:36:41.879Z,23.60
2023-04-30T20:39:09.163Z,23.17
2023-04-30T20:41:36.458Z,24.10
2023-04-30T20:44:03.330Z,21.63
2023-04-30T20:46:32.408Z,22.00
2023-04-30T20:49:04.245Z,21.67
2023-04-30T20:51:31.656Z,23.15
2023-04-30T20:53:58.564Z,23.45
2023-04-30T20:56:26.180Z,24.08
2023-04-30T20:58:54.086Z,23.98
2023-04-30T21:01:21.125Z,23.77
2023-04-30T21:03:49.492Z,24.52
2023-04-30T21:06:17.990Z,24.95
2023-04-30T21:08:44.978Z,23.77
2023-04-30T21:11:14.340Z,26.17
2023-04-30T21:13:41.956Z,28.17
2023-04-30T21:16:09.082Z,25.90
2023-04-30T21:18:35.992Z,28.10
2023-04-30T21:21:05.170Z,26.10
2023-04-30T21:23:32.944Z,25.92
2023-04-30T21:25:59.891Z,27.67
2023-04-30T21:28:27.054Z,24.73
2023-04-30T21:30:54.104Z,28.13
2023-04-30T21:33:21.216Z,27.58
2023-04-30T21:35:48.103Z,26.85
2023-04-30T21:38:15.005Z,28.77
2023-04-30T21:40:43.541Z,28.13
2023-04-30T21:43:10.424Z,30.35
2023-04-30T21:45:37.331Z,32.25
2023-04-30T21:48:05.858Z,31.38
2023-04-30T21:50:34.040Z,30.10
2023-04-30T21:53:03.471Z,28.88
2023-04-30T21:55:30.842Z,32.97
2023-04-30T21:57:57.922Z,28.58
2023-04-30T22:00:25.536Z,29.63
2023-04-30T22:02:52.519Z,29.02
2023-04-30T22:05:22.667Z,29.38
2023-04-30T22:07:49.690Z,27.60
2023-04-30T22:10:16.594Z,29.20
2023-04-30T22:12:47.183Z,26.85
2023-04-30T22:15:15.451Z,27.00
2023-04-30T22:17:42.533Z,30.27
2023-04-30T22:20:10.279Z,27.13
2023-04-30T22:22:37.254Z,29.33
2023-04-30T22:25:04.986Z,26.00
2023-04-30T22:27:32.326Z,25.50
2023-04-30T22:29:59.328Z,27.90
2023-04-30T22:32:26.538Z,25.30
2023-04-30T22:34:53.598Z,25.42
2023-04-30T22:37:20.528Z,25.70
2023-04-30T22:39:48.622Z,21.48
2023-04-30T22:42:17.099Z,21.02
2023-04-30T22:44:45.609Z,22.00
2023-04-30T22:47:12.770Z,20.52
2023-04-30T22:49:39.848Z,20.63
2023-04-30T22:52:07.544Z,20.13
2023-04-30T22:54:35.906Z,20.48
2023-04-30T22:57:03.300Z,17.17
2023-04-30T22:59:30.250Z,15.48
2023-04-30T23:01:57.451Z,16.13
2023-04-30T23:04:26.173Z,14.02
2023-04-30T23:06:53.660Z,12.65
2023-04-30T23:09:20.523Z,13.23
2023-04-30T23:11:48.501Z,12.80
2023-04-30T23:14:15.513Z,12.30
2023-04-30T23:16:43.140Z,12.45
2023-04-30T23:19:10.577Z,12.55
2023-04-30T23:21:38.035Z,10.80
2023-04-30T23:24:05.326Z,11.38
2023-04-30T23:26:32.239Z,11.00
2023-04-30T23:28:59.629Z,12.65
2023-04-30T23:31:27.449Z,11.43
2023-04-30T23:33:54.520Z,11.77
2023-04-30T23:36:21.442Z,11.68
2023-04-30T23:38:48.332Z,11.70
2023-04-30T23:41:15.757Z,11.73
2023-04-30T23:43:42.635Z,13.20
2023-04-30T23:46:09.841Z,11.73
2023-04-30T23:48:36.965Z,11.55
2023-04-30T23:51:06.031Z,12.75
2023-04-30T23:53:32.904Z,12.25
2023-04-30T23:56:00.518Z,11.77
2023-04-30T23:58:31.840Z,10.70
